Home > Products > Valid Products > TAF

000
FTUS44 KEPZ 261700
TAFDMN
TAF
KDMN 261720Z 2618/2718 31005KT P6SM SKC
     FM261900 28010KT P6SM SKC
     FM270300 32005KT P6SM SKC
     FM271500 07003KT P6SM SKC=



000
FTUS44 KEPZ 261700
TAFTCS
TAF
KTCS 261720Z 2618/2718 31006KT P6SM SKC
     FM262000 03005KT P6SM SKC
     FM270400 31007KT P6SM SKC
     FM271600 VRB04KT P6SM SKC=



000
FTUS44 KEPZ 261700
TAFELP
TAF
KELP 261720Z 2618/2718 07007KT P6SM SKC
     FM262000 24008KT P6SM SKC
     FM270300 04006KT P6SM SKC=



000
FTUS44 KEPZ 261100
TAFTCS
TAF
KTCS 261120Z 2612/2712 31006KT P6SM SKC
     FM262000 03005KT P6SM SKC
     FM270400 31007KT P6SM SKC=



000
FTUS44 KEPZ 261100
TAFDMN
TAF
KDMN 261120Z 2612/2712 31005KT P6SM SKC
     FM261900 28010KT P6SM SKC
     FM270300 32005KT P6SM SKC=



000
FTUS44 KEPZ 261100
TAFELP
TAF
KELP 261120Z 2612/2712 07007KT P6SM SKC
     FM262000 24008KT P6SM SKC
     FM270300 04006KT P6SM SKC=



000
FTUS44 KEPZ 260500
TAFDMN
TAF
KDMN 260533Z 2606/2706 28005KT P6SM SKC
     FM261900 28010KT P6SM SKC
     FM270300 32005KT P6SM SKC=



000
FTUS44 KEPZ 260500
TAFTCS
TAF
KTCS 260533Z 2606/2706 30006KT P6SM SKC
     FM262000 03005KT P6SM SKC
     FM270400 31007KT P6SM SKC=



000
FTUS44 KEPZ 260500
TAFELP
TAF
KELP 260533Z 2606/2706 02005KT P6SM SKC
     FM262000 24008KT P6SM SKC
     FM270300 04006KT P6SM SKC=



000
FTUS44 KEPZ 252300
TAFTCS
TAF
KTCS 252320Z 2600/2624 20009KT P6SM SKC
     FM260300 30006KT P6SM SKC
     FM262000 03005KT P6SM SKC=



000
FTUS44 KEPZ 252300
TAFDMN
TAF
KDMN 252320Z 2600/2624 23007KT P6SM SKC
      TEMPO 2600/2601 26010G18KT
     FM260300 28005KT P6SM SKC
     FM261900 28010KT P6SM SKC=



000
FTUS44 KEPZ 252300
TAFELP
TAF
KELP 252320Z 2600/2624 24007KT P6SM SKC
      TEMPO 2600/2601 25010G18KT
     FM260600 02005KT P6SM SKC
     FM262000 24008KT P6SM SKC=



000
FTUS44 KEPZ 251700
TAFDMN
TAF
KDMN 251720Z 2518/2618 23007KT P6SM SKC
     FM260300 28005KT P6SM SKC=



000
FTUS44 KEPZ 251700
TAFTCS
TAF
KTCS 251720Z 2518/2618 VRB05KT P6SM SKC
     FM260300 30006KT P6SM SKC=



000
FTUS44 KEPZ 251700
TAFELP
TAF
KELP 251720Z 2518/2618 07008KT P6SM SKC
     FM252000 24007KT P6SM SKC
     FM260600 02005KT P6SM SKC=



000
FTUS44 KEPZ 251100
TAFTCS
TAF
KTCS 251123Z 2512/2612 32007KT P6SM SKC
     FM251900 19007KT P6SM SKC
     FM260300 30007KT P6SM SKC=



000
FTUS44 KEPZ 251100
TAFELP
TAF
KELP 251123Z 2512/2612 03008KT P6SM SKC
     FM252100 25007KT P6SM SKC=



000
FTUS44 KEPZ 251100
TAFDMN
TAF
KDMN 251123Z 2512/2612 03007KT P6SM SKC
     FM252100 23006KT P6SM SKC=



000
FTUS44 KEPZ 250500
TAFDMN
TAF
KDMN 250521Z 2506/2606 35017G27KT P6SM FEW240 FEW250
     FM250900 03010G20KT P6SM SKC
     FM251400 VRB04KT P6SM SKC
     FM252100 23006KT P6SM SKC
     FM260300 28005KT P6SM SKC=



000
FTUS44 KEPZ 250500
TAFTCS
TAF
KTCS 250521Z 2506/2606 35016G26KT P6SM FEW140 FEW250
     FM250900 32010KT P6SM SKC
     FM251400 VRB04KT P6SM SKC
     FM251900 19007KT P6SM SKC
     FM260300 30006KT P6SM SKC=



000
FTUS44 KEPZ 250500
TAFELP
TAF
KELP 250521Z 2506/2606 36014G22KT P6SM FEW150 FEW250
     FM251000 02011KT P6SM SKC
     FM252100 25007KT P6SM SKC=



000
FTUS44 KEPZ 242300 RRA
TAFDMN
TAF
KDMN 242337Z 2500/2524 28015G25KT P6SM FEW200
     FM250200 35017G27KT P6SM SKC
     FM250900 03010G20KT P6SM SKC
     FM251400 VRB04KT P6SM SKC
     FM252100 23006KT P6SM SKC=



000
FTUS44 KEPZ 242300 RRA
TAFTCS
TAF
KTCS 242337Z 2500/2524 34013G20KT P6SM FEW250
     FM250200 35016G26KT P6SM SKC
     FM250900 32010KT P6SM SKC
     FM251400 VRB04KT P6SM FEW250
     FM251900 19007KT P6SM FEW250=



000
FTUS44 KEPZ 242300 RRA
TAFELP
TAF
KELP 242337Z 2500/2524 29010G18KT P6SM SKC
     FM250200 36014G22KT P6SM FEW150
     FM251000 02011KT P6SM SKC
     FM252100 25007KT P6SM SKC=



000
FTUS44 KEPZ 241700
TAFDMN
TAF
KDMN 241720Z 2418/2518 28007KT P6SM SKC
     FM242100 28015G25KT P6SM FEW200
     FM250200 35017G27KT P6SM SKC
     FM250900 03010G20KT P6SM SKC
     FM251400 VRB04KT P6SM SKC=



000
FTUS44 KEPZ 241700
TAFTCS
TAF
KTCS 241720Z 2418/2518 31011KT P6SM SKC
     FM242100 34013G20KT P6SM FEW250
     FM250200 35016G26KT P6SM SKC
     FM250900 32010KT P6SM SKC
     FM251400 VRB04KT P6SM FEW250=



000
FTUS44 KEPZ 241700
TAFELP
TAF
KELP 241720Z 2418/2518 34009KT P6SM FEW200
     FM242000 29010G18KT P6SM SKC
     FM250200 36014G22KT P6SM FEW150
     FM251000 02011KT P6SM SKC=



000
FTUS44 KEPZ 241100
TAFDMN
TAF
KDMN 241138Z 2412/2512 30007KT P6SM FEW250
     FM241900 29010G18KT P6SM FEW140
     FM250300 35017G27KT P6SM SKC
     FM251000 03010KT P6SM SKC=



000
FTUS44 KEPZ 241100
TAFTCS
TAF
KTCS 241138Z 2412/2512 30006KT P6SM FEW250
     FM242000 30011G20KT P6SM SKC
     FM250200 34018G30KT P6SM SKC
     FM250900 32010KT P6SM SKC=



000
FTUS44 KEPZ 241100
TAFELP
TAF
KELP 241138Z 2412/2512 35009KT P6SM FEW250
     FM242000 29010G18KT P6SM SKC
     FM250400 33014G22KT P6SM SKC=



000
FTUS44 KEPZ 240500
TAFDMN
TAF
KDMN 240520Z 2406/2506 34010KT P6SM FEW250
     FM241700 28010KT P6SM SKC
     FM250400 06012KT P6SM SKC=



000
FTUS44 KEPZ 240500
TAFTCS
TAF
KTCS 240520Z 2406/2506 33015G25KT P6SM SCT250
     FM240900 33010KT P6SM FEW250
     FM241300 VRB04KT P6SM SKC
     FM241800 32008KT P6SM FEW250
     FM250200 02010KT P6SM SKC=



000
FTUS44 KEPZ 240500
TAFELP
TAF
KELP 240520Z 2406/2506 33013G21KT P6SM SCT250
     FM240900 35010KT P6SM FEW250
     FM241700 31008KT P6SM FEW250
     FM250300 06013KT P6SM SKC=



000
FTUS44 KEPZ 240300 AAA
TAFELP
TAF AMD
KELP 240326Z 2403/2424 35008KT P6SM FEW250
     FM241700 31008KT P6SM FEW250=



000
FTUS44 KEPZ 232300
TAFDMN
TAF
KDMN 232334Z 2400/2424 28023G35KT P6SM FEW250
     FM240200 31015KT P6SM FEW250
     FM240400 34007KT P6SM FEW250
     FM241700 28010KT P6SM SKC=



000
FTUS44 KEPZ 232300
TAFTCS
TAF
KTCS 232334Z 2400/2424 31020G35KT P6SM SCT250
     FM240200 34012KT P6SM SCT250
     FM240600 31005KT P6SM FEW250
     FM241300 VRB04KT P6SM SKC
     FM241800 32008KT P6SM FEW250=



000
FTUS44 KEPZ 232300
TAFELP
TAF
KELP 232334Z 2400/2424 28026G38KT P6SM SCT250
      TEMPO 2400/2401 29032G47KT
     FM240200 31015G25KT P6SM FEW250
     FM240500 35008KT P6SM FEW250
     FM241700 31008KT P6SM FEW250=



    US Dept of Commerce
    National Oceanic and Atmospheric Administration
    National Weather Service
    1325 East West Highway
    Silver Spring, MD 20910
    Page Author: NWS Internet Services Team
Disclaimer
Information Quality
Credits
Glossary
Privacy Policy
Freedom of Information Act (FOIA)
About Us
Career Opportunities